sensor_id;sensor_type;location;lat;lon;timestamp;pressure;altitude;pressure_sealevel;temperature;humidity
50933;BME280;36921;49.006;9.292;2022-10-22T00:02:10;98513.94;;;12.67;100.00
50933;BME280;36921;49.006;9.292;2022-10-22T00:04:35;98499.75;;;12.65;100.00
50933;BME280;36921;49.006;9.292;2022-10-22T00:07:01;98509.56;;;12.66;100.00
50933;BME280;36921;49.006;9.292;2022-10-22T00:09:26;98513.78;;;12.62;100.00
50933;BME280;36921;49.006;9.292;2022-10-22T00:11:52;98509.88;;;12.58;100.00
50933;BME280;36921;49.006;9.292;2022-10-22T00:14:18;98512.19;;;12.54;100.00
50933;BME280;36921;49.006;9.292;2022-10-22T00:16:43;98509.88;;;12.58;100.00
50933;BME280;36921;49.006;9.292;2022-10-22T00:19:09;98518.22;;;12.56;100.00
50933;BME280;36921;49.006;9.292;2022-10-22T00:21:35;98515.88;;;12.60;100.00
50933;BME280;36921;49.006;9.292;2022-10-22T00:24:00;98520.09;;;12.56;100.00
50933;BME280;36921;49.006;9.292;2022-10-22T00:26:26;98511.97;;;12.56;100.00
50933;BME280;36921;49.006;9.292;2022-10-22T00:28:52;98514.69;;;12.56;100.00
50933;BME280;36921;49.006;9.292;2022-10-22T00:31:17;98510.91;;;12.57;100.00
50933;BME280;36921;49.006;9.292;2022-10-22T00:33:45;98510.28;;;12.55;100.00
50933;BME280;36921;49.006;9.292;2022-10-22T00:36:11;98510.91;;;12.57;100.00
50933;BME280;36921;49.006;9.292;2022-10-22T00:38:37;98496.28;;;12.58;100.00
50933;BME280;36921;49.006;9.292;2022-10-22T00:41:03;98497.72;;;12.60;100.00
50933;BME280;36921;49.006;9.292;2022-10-22T00:43:28;98506.47;;;12.62;100.00
50933;BME280;36921;49.006;9.292;2022-10-22T00:45:55;98510.44;;;12.60;100.00
50933;BME280;36921;49.006;9.292;2022-10-22T00:48:30;98529.59;;;12.65;100.00
50933;BME280;36921;49.006;9.292;2022-10-22T00:50:59;98534.50;;;12.56;100.00
50933;BME280;36921;49.006;9.292;2022-10-22T00:53:35;98534.13;;;12.53;100.00
50933;BME280;36921;49.006;9.292;2022-10-22T00:56:02;98530.84;;;12.44;100.00
50933;BME280;36921;49.006;9.292;2022-10-22T00:58:30;98536.25;;;12.44;100.00
50933;BME280;36921;49.006;9.292;2022-10-22T01:00:58;98531.75;;;12.38;100.00
50933;BME280;36921;49.006;9.292;2022-10-22T01:03:23;98520.06;;;12.37;100.00
50933;BME280;36921;49.006;9.292;2022-10-22T01:05:58;98510.03;;;12.38;100.00
50933;BME280;36921;49.006;9.292;2022-10-22T01:08:54;98496.25;;;12.39;100.00
50933;BME280;36921;49.006;9.292;2022-10-22T01:11:29;98503.34;;;12.40;100.00
50933;BME280;36921;49.006;9.292;2022-10-22T01:14:08;98487.97;;;12.34;100.00
50933;BME280;36921;49.006;9.292;2022-10-22T01:21:51;98466.72;;;12.49;100.00
50933;BME280;36921;49.006;9.292;2022-10-22T01:30:04;98499.88;;;12.52;100.00
50933;BME280;36921;49.006;9.292;2022-10-22T01:32:36;98489.63;;;12.54;100.00
50933;BME280;36921;49.006;9.292;2022-10-22T01:35:06;98491.13;;;12.49;100.00
50933;BME280;36921;49.006;9.292;2022-10-22T01:37:37;98504.28;;;12.53;100.00
50933;BME280;36921;49.006;9.292;2022-10-22T01:40:06;98509.25;;;12.56;100.00
50933;BME280;36921;49.006;9.292;2022-10-22T01:42:35;98502.59;;;12.52;100.00
50933;BME280;36921;49.006;9.292;2022-10-22T01:45:01;98518.88;;;12.52;100.00
50933;BME280;36921;49.006;9.292;2022-10-22T02:00:48;98531.53;;;12.39;100.00
50933;BME280;36921;49.006;9.292;2022-10-22T02:03:20;98550.94;;;12.36;100.00
50933;BME280;36921;49.006;9.292;2022-10-22T02:05:56;98551.84;;;12.30;100.00
50933;BME280;36921;49.006;9.292;2022-10-22T02:08:27;98551.03;;;12.23;100.00
50933;BME280;36921;49.006;9.292;2022-10-22T02:10:54;98564.06;;;12.14;100.00
50933;BME280;36921;49.006;9.292;2022-10-22T02:13:29;98569.84;;;12.18;100.00
50933;BME280;36921;49.006;9.292;2022-10-22T02:15:56;98574.69;;;12.16;100.00
50933;BME280;36921;49.006;9.292;2022-10-22T02:18:27;98570.25;;;12.21;100.00
50933;BME280;36921;49.006;9.292;2022-10-22T02:20:54;98584.03;;;12.20;100.00
50933;BME280;36921;49.006;9.292;2022-10-22T02:23:20;98572.84;;;12.10;100.00
50933;BME280;36921;49.006;9.292;2022-10-22T02:25:49;98569.13;;;12.04;100.00
50933;BME280;36921;49.006;9.292;2022-10-22T02:28:22;98563.31;;;12.00;100.00
50933;BME280;36921;49.006;9.292;2022-10-22T02:30:56;98585.59;;;12.02;100.00
50933;BME280;36921;49.006;9.292;2022-10-22T02:33:31;98575.88;;;11.95;100.00
50933;BME280;36921;49.006;9.292;2022-10-22T02:36:00;98562.34;;;11.81;100.00
50933;BME280;36921;49.006;9.292;2022-10-22T02:38:27;98548.03;;;12.06;100.00
50933;BME280;36921;49.006;9.292;2022-10-22T02:40:53;98530.06;;;12.12;100.00
50933;BME280;36921;49.006;9.292;2022-10-22T02:43:18;98517.22;;;12.00;100.00
50933;BME280;36921;49.006;9.292;2022-10-22T02:45:45;98545.44;;;11.93;100.00
50933;BME280;36921;49.006;9.292;2022-10-22T02:48:10;98554.81;;;11.90;100.00
50933;BME280;36921;49.006;9.292;2022-10-22T02:50:35;98557.44;;;12.03;100.00
50933;BME280;36921;49.006;9.292;2022-10-22T02:53:01;98539.69;;;12.07;100.00
50933;BME280;36921;49.006;9.292;2022-10-22T02:55:27;98549.84;;;12.19;100.00
50933;BME280;36921;49.006;9.292;2022-10-22T02:57:52;98554.44;;;12.18;100.00
50933;BME280;36921;49.006;9.292;2022-10-22T03:00:18;98539.44;;;12.16;100.00
50933;BME280;36921;49.006;9.292;2022-10-22T03:02:44;98532.97;;;12.10;100.00
50933;BME280;36921;49.006;9.292;2022-10-22T03:05:09;98546.16;;;12.06;100.00
50933;BME280;36921;49.006;9.292;2022-10-22T03:07:34;98546.22;;;12.00;100.00
50933;BME280;36921;49.006;9.292;2022-10-22T03:10:00;98539.75;;;12.01;100.00
50933;BME280;36921;49.006;9.292;2022-10-22T03:12:25;98543.25;;;12.08;100.00
50933;BME280;36921;49.006;9.292;2022-10-22T03:14:50;98531.97;;;12.04;100.00
50933;BME280;36921;49.006;9.292;2022-10-22T03:17:17;98532.41;;;12.08;100.00
50933;BME280;36921;49.006;9.292;2022-10-22T03:19:42;98532.34;;;12.15;100.00
50933;BME280;36921;49.006;9.292;2022-10-22T03:22:11;98528.34;;;12.17;100.00
50933;BME280;36921;49.006;9.292;2022-10-22T03:24:40;98513.50;;;12.20;100.00
50933;BME280;36921;49.006;9.292;2022-10-22T03:27:07;98527.63;;;12.28;100.00
50933;BME280;36921;49.006;9.292;2022-10-22T03:29:35;98530.13;;;12.30;100.00
50933;BME280;36921;49.006;9.292;2022-10-22T03:32:01;98517.66;;;12.22;100.00
50933;BME280;36921;49.006;9.292;2022-10-22T03:34:27;98517.00;;;12.27;100.00
50933;BME280;36921;49.006;9.292;2022-10-22T03:36:52;98515.94;;;12.28;100.00
50933;BME280;36921;49.006;9.292;2022-10-22T03:39:18;98528.53;;;12.22;100.00
50933;BME280;36921;49.006;9.292;2022-10-22T03:41:45;98508.91;;;12.20;100.00
50933;BME280;36921;49.006;9.292;2022-10-22T03:44:11;98505.72;;;12.30;100.00
50933;BME280;36921;49.006;9.292;2022-10-22T03:46:36;98489.66;;;12.28;100.00
50933;BME280;36921;49.006;9.292;2022-10-22T03:49:02;98489.16;;;12.38;100.00
50933;BME280;36921;49.006;9.292;2022-10-22T03:51:27;98486.59;;;12.43;100.00
50933;BME280;36921;49.006;9.292;2022-10-22T03:53:53;98479.53;;;12.42;100.00
50933;BME280;36921;49.006;9.292;2022-10-22T03:56:18;98464.44;;;12.46;100.00
50933;BME280;36921;49.006;9.292;2022-10-22T03:58:44;98463.41;;;12.47;100.00
50933;BME280;36921;49.006;9.292;2022-10-22T04:01:11;98475.31;;;12.46;100.00
50933;BME280;36921;49.006;9.292;2022-10-22T04:03:37;98477.28;;;12.39;100.00
50933;BME280;36921;49.006;9.292;2022-10-22T04:06:07;98497.41;;;12.50;100.00
50933;BME280;36921;49.006;9.292;2022-10-22T04:08:33;98507.94;;;12.40;100.00
50933;BME280;36921;49.006;9.292;2022-10-22T04:10:59;98519.13;;;12.25;100.00
50933;BME280;36921;49.006;9.292;2022-10-22T04:13:25;98531.47;;;12.21;100.00
50933;BME280;36921;49.006;9.292;2022-10-22T04:15:51;98541.00;;;12.23;100.00
50933;BME280;36921;49.006;9.292;2022-10-22T04:18:21;98554.75;;;12.28;100.00
50933;BME280;36921;49.006;9.292;2022-10-22T04:20:48;98561.19;;;12.34;100.00
50933;BME280;36921;49.006;9.292;2022-10-22T04:23:15;98509.84;;;12.07;100.00
50933;BME280;36921;49.006;9.292;2022-10-22T04:25:40;98542.31;;;12.21;100.00
50933;BME280;36921;49.006;9.292;2022-10-22T04:28:07;98540.19;;;12.23;100.00
50933;BME280;36921;49.006;9.292;2022-10-22T04:30:33;98519.00;;;12.13;100.00
50933;BME280;36921;49.006;9.292;2022-10-22T04:32:59;98554.72;;;12.35;100.00
50933;BME280;36921;49.006;9.292;2022-10-22T04:35:24;98549.66;;;12.14;100.00
50933;BME280;36921;49.006;9.292;2022-10-22T04:37:50;98568.66;;;12.14;100.00
50933;BME280;36921;49.006;9.292;2022-10-22T04:40:15;98549.06;;;12.05;100.00
50933;BME280;36921;49.006;9.292;2022-10-22T04:42:41;98548.59;;;12.15;100.00
50933;BME280;36921;49.006;9.292;2022-10-22T04:45:06;98548.44;;;12.10;100.00
50933;BME280;36921;49.006;9.292;2022-10-22T04:47:32;98537.50;;;11.91;100.00
50933;BME280;36921;49.006;9.292;2022-10-22T04:49:57;98544.66;;;11.79;100.00
50933;BME280;36921;49.006;9.292;2022-10-22T04:52:22;98535.28;;;11.75;100.00
50933;BME280;36921;49.006;9.292;2022-10-22T04:54:48;98544.53;;;11.99;100.00
50933;BME280;36921;49.006;9.292;2022-10-22T04:57:13;98553.94;;;11.96;100.00
50933;BME280;36921;49.006;9.292;2022-10-22T04:59:38;98556.28;;;11.93;100.00
50933;BME280;36921;49.006;9.292;2022-10-22T05:02:04;98551.53;;;11.75;100.00
50933;BME280;36921;49.006;9.292;2022-10-22T05:04:29;98559.28;;;11.71;100.00
50933;BME280;36921;49.006;9.292;2022-10-22T05:06:55;98577.34;;;11.84;100.00
50933;BME280;36921;49.006;9.292;2022-10-22T05:09:20;98564.22;;;11.81;100.00
50933;BME280;36921;49.006;9.292;2022-10-22T05:11:48;98592.09;;;12.01;100.00
50933;BME280;36921;49.006;9.292;2022-10-22T05:14:19;98580.91;;;11.78;100.00
50933;BME280;36921;49.006;9.292;2022-10-22T05:16:45;98604.28;;;11.79;100.00
50933;BME280;36921;49.006;9.292;2022-10-22T05:19:21;98611.63;;;11.65;100.00
50933;BME280;36921;49.006;9.292;2022-10-22T05:21:48;98614.38;;;11.52;100.00
50933;BME280;36921;49.006;9.292;2022-10-22T05:24:14;98604.59;;;11.51;100.00
50933;BME280;36921;49.006;9.292;2022-10-22T05:26:39;98597.94;;;11.53;100.00
50933;BME280;36921;49.006;9.292;2022-10-22T05:29:04;98623.91;;;11.74;100.00
50933;BME280;36921;49.006;9.292;2022-10-22T05:31:29;98610.53;;;11.73;100.00
50933;BME280;36921;49.006;9.292;2022-10-22T05:33:55;98608.53;;;11.61;100.00
50933;BME280;36921;49.006;9.292;2022-10-22T05:36:21;98634.75;;;11.68;100.00
50933;BME280;36921;49.006;9.292;2022-10-22T05:38:46;98624.75;;;11.68;100.00
50933;BME280;36921;49.006;9.292;2022-10-22T05:41:20;98631.00;;;11.69;100.00
50933;BME280;36921;49.006;9.292;2022-10-22T05:43:46;98626.25;;;11.57;100.00
50933;BME280;36921;49.006;9.292;2022-10-22T05:46:14;98642.75;;;11.49;100.00
50933;BME280;36921;49.006;9.292;2022-10-22T05:48:40;98649.84;;;11.50;100.00
50933;BME280;36921;49.006;9.292;2022-10-22T05:51:08;98651.06;;;11.54;100.00
50933;BME280;36921;49.006;9.292;2022-10-22T05:53:35;98655.66;;;11.54;100.00
50933;BME280;36921;49.006;9.292;2022-10-22T05:56:03;98636.94;;;11.46;100.00
50933;BME280;36921;49.006;9.292;2022-10-22T05:58:29;98673.56;;;11.61;100.00
50933;BME280;36921;49.006;9.292;2022-10-22T06:01:01;98662.75;;;11.48;100.00
50933;BME280;36921;49.006;9.292;2022-10-22T06:03:26;98672.34;;;11.51;100.00
50933;BME280;36921;49.006;9.292;2022-10-22T06:05:53;98646.13;;;11.31;100.00
50933;BME280;36921;49.006;9.292;2022-10-22T06:08:18;98650.91;;;11.36;100.00
50933;BME280;36921;49.006;9.292;2022-10-22T06:10:43;98676.94;;;11.37;100.00
50933;BME280;36921;49.006;9.292;2022-10-22T06:13:09;98689.44;;;11.38;100.00
50933;BME280;36921;49.006;9.292;2022-10-22T06:15:34;98672.78;;;11.41;100.00
50933;BME280;36921;49.006;9.292;2022-10-22T06:18:00;98710.88;;;11.59;100.00
50933;BME280;36921;49.006;9.292;2022-10-22T06:20:25;98693.34;;;11.69;100.00
50933;BME280;36921;49.006;9.292;2022-10-22T06:22:50;98689.78;;;11.75;100.00
50933;BME280;36921;49.006;9.292;2022-10-22T06:25:16;98695.19;;;11.75;100.00
50933;BME280;36921;49.006;9.292;2022-10-22T06:27:41;98686.66;;;11.65;100.00
50933;BME280;36921;49.006;9.292;2022-10-22T06:30:07;98716.84;;;11.88;100.00
50933;BME280;36921;49.006;9.292;2022-10-22T06:32:33;98701.81;;;11.85;100.00
50933;BME280;36921;49.006;9.292;2022-10-22T06:34:58;98711.63;;;11.93;100.00
50933;BME280;36921;49.006;9.292;2022-10-22T06:37:23;98713.28;;;12.01;100.00
50933;BME280;36921;49.006;9.292;2022-10-22T06:39:49;98708.00;;;12.13;100.00
50933;BME280;36921;49.006;9.292;2022-10-22T06:42:14;98693.84;;;12.04;100.00
50933;BME280;36921;49.006;9.292;2022-10-22T06:44:40;98706.97;;;12.14;100.00
50933;BME280;36921;49.006;9.292;2022-10-22T06:47:05;98701.22;;;12.35;100.00
50933;BME280;36921;49.006;9.292;2022-10-22T06:49:30;98704.31;;;12.39;100.00
50933;BME280;36921;49.006;9.292;2022-10-22T06:51:55;98713.59;;;12.63;100.00
50933;BME280;36921;49.006;9.292;2022-10-22T06:54:21;98723.63;;;12.87;100.00
50933;BME280;36921;49.006;9.292;2022-10-22T06:56:46;98718.91;;;13.01;100.00
50933;BME280;36921;49.006;9.292;2022-10-22T06:59:12;98724.31;;;13.08;100.00
50933;BME280;36921;49.006;9.292;2022-10-22T07:01:38;98729.19;;;13.24;100.00
50933;BME280;36921;49.006;9.292;2022-10-22T07:04:04;98729.91;;;13.38;100.00
50933;BME280;36921;49.006;9.292;2022-10-22T07:06:30;98723.22;;;13.41;100.00
50933;BME280;36921;49.006;9.292;2022-10-22T07:08:56;98740.63;;;13.76;100.00
50933;BME280;36921;49.006;9.292;2022-10-22T07:11:25;98743.66;;;13.87;100.00
50933;BME280;36921;49.006;9.292;2022-10-22T07:13:56;98743.34;;;13.95;100.00
50933;BME280;36921;49.006;9.292;2022-10-22T07:16:22;98744.13;;;14.02;100.00
50933;BME280;36921;49.006;9.292;2022-10-22T07:18:47;98753.75;;;14.35;100.00
50933;BME280;36921;49.006;9.292;2022-10-22T07:21:14;98752.59;;;14.91;100.00
50933;BME280;36921;49.006;9.292;2022-10-22T07:23:40;98741.72;;;14.91;100.00
50933;BME280;36921;49.006;9.292;2022-10-22T07:26:06;98763.69;;;14.78;100.00
50933;BME280;36921;49.006;9.292;2022-10-22T07:28:33;98721.53;;;14.50;100.00
50933;BME280;36921;49.006;9.292;2022-10-22T07:30:59;98750.34;;;14.58;100.00
50933;BME280;36921;49.006;9.292;2022-10-22T07:33:25;98735.25;;;14.74;100.00
50933;BME280;36921;49.006;9.292;2022-10-22T07:35:50;98745.16;;;16.16;100.00
50933;BME280;36921;49.006;9.292;2022-10-22T07:38:21;98742.06;;;16.93;100.00
50933;BME280;36921;49.006;9.292;2022-10-22T07:40:46;98734.44;;;16.95;100.00
50933;BME280;36921;49.006;9.292;2022-10-22T07:43:11;98714.88;;;16.58;100.00
50933;BME280;36921;49.006;9.292;2022-10-22T07:45:37;98739.91;;;16.26;100.00
50933;BME280;36921;49.006;9.292;2022-10-22T07:48:02;98726.69;;;16.06;100.00
50933;BME280;36921;49.006;9.292;2022-10-22T07:50:27;98751.22;;;16.18;100.00
50933;BME280;36921;49.006;9.292;2022-10-22T07:52:53;98751.41;;;16.69;100.00
50933;BME280;36921;49.006;9.292;2022-10-22T07:55:18;98737.22;;;16.83;100.00
50933;BME280;36921;49.006;9.292;2022-10-22T07:57:43;98750.13;;;18.06;100.00
50933;BME280;36921;49.006;9.292;2022-10-22T08:00:09;98746.38;;;19.75;100.00
50933;BME280;36921;49.006;9.292;2022-10-22T08:02:35;98731.19;;;20.78;100.00
50933;BME280;36921;49.006;9.292;2022-10-22T08:05:00;98743.56;;;20.75;100.00
50933;BME280;36921;49.006;9.292;2022-10-22T08:07:25;98745.56;;;19.80;100.00
50933;BME280;36921;49.006;9.292;2022-10-22T08:09:51;98745.69;;;18.93;100.00
50933;BME280;36921;49.006;9.292;2022-10-22T08:12:16;98747.00;;;18.20;100.00
50933;BME280;36921;49.006;9.292;2022-10-22T08:14:42;98753.78;;;18.83;100.00
50933;BME280;36921;49.006;9.292;2022-10-22T08:17:07;98756.22;;;20.87;100.00
50933;BME280;36921;49.006;9.292;2022-10-22T08:19:32;98740.47;;;22.30;100.00
50933;BME280;36921;49.006;9.292;2022-10-22T08:21:59;98760.66;;;24.13;90.04
50933;BME280;36921;49.006;9.292;2022-10-22T08:24:25;98751.44;;;24.89;79.56
50933;BME280;36921;49.006;9.292;2022-10-22T08:26:51;98728.44;;;24.51;76.48
50933;BME280;36921;49.006;9.292;2022-10-22T08:29:18;98748.75;;;23.59;79.49
50933;BME280;36921;49.006;9.292;2022-10-22T08:31:45;98754.72;;;20.53;100.00
50933;BME280;36921;49.006;9.292;2022-10-22T08:34:11;98750.28;;;20.37;100.00
50933;BME280;36921;49.006;9.292;2022-10-22T08:36:36;98765.09;;;21.45;100.00
50933;BME280;36921;49.006;9.292;2022-10-22T08:39:01;98750.41;;;22.81;92.92
50933;BME280;36921;49.006;9.292;2022-10-22T08:41:27;98741.19;;;23.40;82.49
50933;BME280;36921;49.006;9.292;2022-10-22T08:47:25;98751.38;;;24.52;71.14
50933;BME280;36921;49.006;9.292;2022-10-22T08:49:52;98753.81;;;24.34;71.85
50933;BME280;36921;49.006;9.292;2022-10-22T08:52:19;98756.88;;;23.79;73.51
50933;BME280;36921;49.006;9.292;2022-10-22T08:54:59;98765.81;;;22.92;80.11
50933;BME280;36921;49.006;9.292;2022-10-22T09:00:34;98772.88;;;23.48;76.44
50933;BME280;36921;49.006;9.292;2022-10-22T09:03:25;98762.38;;;25.19;66.88
50933;BME280;36921;49.006;9.292;2022-10-22T09:06:05;98773.84;;;25.64;65.02
50933;BME280;36921;49.006;9.292;2022-10-22T09:08:34;98772.94;;;25.17;66.22
50933;BME280;36921;49.006;9.292;2022-10-22T09:11:17;98760.44;;;26.17;62.93
50933;BME280;36921;49.006;9.292;2022-10-22T09:13:44;98765.66;;;26.19;61.90
50933;BME280;36921;49.006;9.292;2022-10-22T09:21:13;98772.53;;;27.27;58.08
50933;BME280;36921;49.006;9.292;2022-10-22T09:23:55;98764.50;;;26.48;59.22
50933;BME280;36921;49.006;9.292;2022-10-22T09:26:22;98734.22;;;26.65;58.32
50933;BME280;36921;49.006;9.292;2022-10-22T09:28:51;98757.22;;;26.24;60.46
50933;BME280;36921;49.006;9.292;2022-10-22T09:31:17;98759.84;;;27.35;57.49
50933;BME280;36921;49.006;9.292;2022-10-22T09:33:44;98776.31;;;27.99;54.98
50933;BME280;36921;49.006;9.292;2022-10-22T09:36:19;98765.28;;;27.40;54.34
50933;BME280;36921;49.006;9.292;2022-10-22T09:38:48;98764.50;;;27.70;54.83
50933;BME280;36921;49.006;9.292;2022-10-22T09:41:14;98794.31;;;27.56;53.68
50933;BME280;36921;49.006;9.292;2022-10-22T09:43:40;98777.22;;;29.14;51.11
50933;BME280;36921;49.006;9.292;2022-10-22T09:46:07;98793.78;;;29.19;50.96
50933;BME280;36921;49.006;9.292;2022-10-22T09:48:40;98800.22;;;30.95;46.90
50933;BME280;36921;49.006;9.292;2022-10-22T09:51:35;98802.13;;;29.54;47.10
50933;BME280;36921;49.006;9.292;2022-10-22T09:54:01;98777.38;;;29.09;48.62
50933;BME280;36921;49.006;9.292;2022-10-22T09:56:39;98809.97;;;27.74;53.09
50933;BME280;36921;49.006;9.292;2022-10-22T09:59:14;98812.59;;;27.93;52.21
50933;BME280;36921;49.006;9.292;2022-10-22T10:01:40;98794.91;;;28.21;52.03
50933;BME280;36921;49.006;9.292;2022-10-22T10:04:11;98804.75;;;29.59;50.41
50933;BME280;36921;49.006;9.292;2022-10-22T10:06:39;98807.69;;;30.44;48.26
50933;BME280;36921;49.006;9.292;2022-10-22T10:09:14;98823.94;;;30.80;45.99
50933;BME280;36921;49.006;9.292;2022-10-22T10:11:45;98821.41;;;30.96;45.14
50933;BME280;36921;49.006;9.292;2022-10-22T10:14:34;98827.78;;;31.27;45.08
50933;BME280;36921;49.006;9.292;2022-10-22T10:22:57;98828.38;;;30.43;46.01
50933;BME280;36921;49.006;9.292;2022-10-22T10:30:54;98825.31;;;31.04;45.61
50933;BME280;36921;49.006;9.292;2022-10-22T10:38:57;98844.09;;;27.66;51.60
50933;BME280;36921;49.006;9.292;2022-10-22T10:41:41;98837.69;;;28.33;50.25
50933;BME280;36921;49.006;9.292;2022-10-22T10:47:37;98839.25;;;26.72;52.42
50933;BME280;36921;49.006;9.292;2022-10-22T10:50:19;98844.09;;;28.74;49.31
50933;BME280;36921;49.006;9.292;2022-10-22T10:53:02;98847.88;;;29.35;48.30
50933;BME280;36921;49.006;9.292;2022-10-22T10:55:38;98842.66;;;30.42;44.63
50933;BME280;36921;49.006;9.292;2022-10-22T11:01:02;98845.81;;;30.78;44.33
50933;BME280;36921;49.006;9.292;2022-10-22T11:03:39;98817.25;;;32.07;42.46
50933;BME280;36921;49.006;9.292;2022-10-22T11:06:13;98835.19;;;31.52;43.19
50933;BME280;36921;49.006;9.292;2022-10-22T11:08:47;98830.28;;;32.49;42.35
50933;BME280;36921;49.006;9.292;2022-10-22T11:11:22;98835.81;;;33.07;40.72
50933;BME280;36921;49.006;9.292;2022-10-22T11:14:30;98838.88;;;32.31;41.54
50933;BME280;36921;49.006;9.292;2022-10-22T11:17:00;98839.84;;;33.74;41.65
50933;BME280;36921;49.006;9.292;2022-10-22T11:19:39;98832.34;;;33.78;39.05
50933;BME280;36921;49.006;9.292;2022-10-22T11:22:24;98830.75;;;33.53;39.67
50933;BME280;36921;49.006;9.292;2022-10-22T11:24:58;98823.75;;;34.15;38.89
50933;BME280;36921;49.006;9.292;2022-10-22T11:27:41;98835.66;;;32.66;41.30
50933;BME280;36921;49.006;9.292;2022-10-22T11:30:12;98835.31;;;32.10;39.96
50933;BME280;36921;49.006;9.292;2022-10-22T11:32:40;98835.38;;;32.35;39.47
50933;BME280;36921;49.006;9.292;2022-10-22T11:35:11;98824.38;;;32.29;41.83
50933;BME280;36921;49.006;9.292;2022-10-22T11:37:39;98811.38;;;32.70;40.01
50933;BME280;36921;49.006;9.292;2022-10-22T11:40:20;98812.53;;;34.47;38.36
50933;BME280;36921;49.006;9.292;2022-10-22T11:42:52;98808.72;;;34.39;37.42
50933;BME280;36921;49.006;9.292;2022-10-22T12:00:53;98802.88;;;32.55;37.84
50933;BME280;36921;49.006;9.292;2022-10-22T12:03:36;98800.53;;;34.02;35.37
50933;BME280;36921;49.006;9.292;2022-10-22T12:08:45;98803.84;;;34.20;36.99
50933;BME280;36921;49.006;9.292;2022-10-22T12:11:16;98801.69;;;33.86;38.37
50933;BME280;36921;49.006;9.292;2022-10-22T12:16:37;98795.13;;;33.13;37.72
50933;BME280;36921;49.006;9.292;2022-10-22T12:21:37;98793.66;;;33.44;37.34
50933;BME280;36921;49.006;9.292;2022-10-22T12:24:05;98790.78;;;34.12;36.93
50933;BME280;36921;49.006;9.292;2022-10-22T12:26:31;98774.41;;;33.70;35.96
50933;BME280;36921;49.006;9.292;2022-10-22T12:28:59;98785.44;;;34.55;35.22
50933;BME280;36921;49.006;9.292;2022-10-22T12:31:25;98786.34;;;35.26;34.43
50933;BME280;36921;49.006;9.292;2022-10-22T12:33:57;98789.06;;;32.74;35.80
50933;BME280;36921;49.006;9.292;2022-10-22T12:36:28;98792.56;;;32.46;38.39
50933;BME280;36921;49.006;9.292;2022-10-22T12:38:53;98784.09;;;31.97;37.13
50933;BME280;36921;49.006;9.292;2022-10-22T12:41:21;98786.44;;;32.20;36.29
50933;BME280;36921;49.006;9.292;2022-10-22T12:43:58;98773.00;;;33.36;35.24
50933;BME280;36921;49.006;9.292;2022-10-22T12:46:24;98777.19;;;33.70;34.21
50933;BME280;36921;49.006;9.292;2022-10-22T12:48:51;98776.38;;;34.30;33.65
50933;BME280;36921;49.006;9.292;2022-10-22T12:51:18;98774.00;;;33.44;34.52
50933;BME280;36921;49.006;9.292;2022-10-22T12:53:46;98767.44;;;33.52;34.45
50933;BME280;36921;49.006;9.292;2022-10-22T12:56:17;98778.06;;;32.32;37.38
50933;BME280;36921;49.006;9.292;2022-10-22T13:01:20;98771.06;;;33.12;35.51
50933;BME280;36921;49.006;9.292;2022-10-22T13:03:48;98764.59;;;33.24;32.87
50933;BME280;36921;49.006;9.292;2022-10-22T13:08:42;98773.31;;;31.12;36.28
50933;BME280;36921;49.006;9.292;2022-10-22T13:11:10;98770.09;;;31.01;36.38
50933;BME280;36921;49.006;9.292;2022-10-22T13:16:23;98771.94;;;30.67;36.31
50933;BME280;36921;49.006;9.292;2022-10-22T13:18:51;98774.03;;;30.41;37.12
50933;BME280;36921;49.006;9.292;2022-10-22T13:21:35;98768.66;;;30.65;37.83
50933;BME280;36921;49.006;9.292;2022-10-22T13:24:17;98771.22;;;29.93;37.67
50933;BME280;36921;49.006;9.292;2022-10-22T13:26:47;98765.50;;;29.90;38.29
50933;BME280;36921;49.006;9.292;2022-10-22T13:29:15;98763.72;;;29.85;39.19
50933;BME280;36921;49.006;9.292;2022-10-22T13:31:48;98742.25;;;29.77;38.14
50933;BME280;36921;49.006;9.292;2022-10-22T13:34:18;98770.28;;;30.36;37.41
50933;BME280;36921;49.006;9.292;2022-10-22T13:36:44;98761.31;;;31.11;37.24
50933;BME280;36921;49.006;9.292;2022-10-22T13:39:21;98763.91;;;31.16;37.26
50933;BME280;36921;49.006;9.292;2022-10-22T13:41:47;98768.41;;;30.79;38.05
50933;BME280;36921;49.006;9.292;2022-10-22T13:44:15;98753.38;;;30.63;36.92
50933;BME280;36921;49.006;9.292;2022-10-22T13:46:40;98760.19;;;30.83;37.26
50933;BME280;36921;49.006;9.292;2022-10-22T13:49:13;98746.50;;;29.57;39.61
50933;BME280;36921;49.006;9.292;2022-10-22T13:51:39;98750.66;;;29.42;38.70
50933;BME280;36921;49.006;9.292;2022-10-22T13:54:16;98753.69;;;29.93;37.98
50933;BME280;36921;49.006;9.292;2022-10-22T13:56:42;98765.00;;;28.92;40.14
50933;BME280;36921;49.006;9.292;2022-10-22T13:59:08;98751.59;;;28.77;40.15
50933;BME280;36921;49.006;9.292;2022-10-22T14:01:35;98755.38;;;28.41;40.91
50933;BME280;36921;49.006;9.292;2022-10-22T14:04:03;98736.22;;;27.91;41.75
50933;BME280;36921;49.006;9.292;2022-10-22T14:06:30;98757.16;;;27.97;42.30
50933;BME280;36921;49.006;9.292;2022-10-22T14:09:04;98752.03;;;28.22;41.45
50933;BME280;36921;49.006;9.292;2022-10-22T14:11:30;98753.97;;;27.00;44.41
50933;BME280;36921;49.006;9.292;2022-10-22T14:13:56;98754.88;;;27.76;43.26
50933;BME280;36921;49.006;9.292;2022-10-22T14:16:27;98755.41;;;27.56;43.56
50933;BME280;36921;49.006;9.292;2022-10-22T14:18:55;98752.63;;;27.79;43.52
50933;BME280;36921;49.006;9.292;2022-10-22T14:21:21;98757.31;;;28.32;42.86
50933;BME280;36921;49.006;9.292;2022-10-22T14:23:47;98765.53;;;27.52;43.31
50933;BME280;36921;49.006;9.292;2022-10-22T14:26:24;98760.81;;;27.16;45.05
50933;BME280;36921;49.006;9.292;2022-10-22T14:28:52;98767.81;;;27.14;44.74
50933;BME280;36921;49.006;9.292;2022-10-22T14:31:17;98756.81;;;26.17;45.64